Startpagina
METAR-TAF:

METAR-TAF

Vliegvelden :

Matam, Senegal

breedte: 15-39N, lengte: 013-15W, hoogte: 15 m

Actueel weer

Dit bericht is 2 uur en het 42 minuten geleden gemaakt, om 00:00 UTC
Wind 10 kt uit het zuidzuidwesten
Temperatuur 26°C
Vochtigheid 84%
Druk 1013 hPa
Zicht 10 km of meer
Weinig wolken op 1600 ft
Weinig wolken op 3000 ft, Cumulonimbus.

METAR: GOSM 210000Z 20010KT 9999 MTSRA FEW016 FEW030CB 26/23 Q1013

Tijdstip: 02:42 (02:42 UTC)


TAF: ontbreekt

Waarnemingen en weersverwachtingen van meer dan 4000 vliegvelden (METAR en TAF).

De beschikbare stations zijn de gele en rode punten op de kaart.

Ga met uw muis naar het station om de naam te zien.

Klik dan om waarnemingen en weersverwachtingen te zien.

kaart wijzigen: klik op de groene knoppen met een zwart kruis om in te zoomen, op de groene knop met een streepje om uit te zoomen of op de groene pijlen voor aangrenzende kaarten.


METAR-TAF: